sensor_id;sensor_type;location;lat;lon;timestamp;temperature;humidity
41928;DHT22;27616;51.420;6.788;2023-03-01T00:02:02;-0.60;99.90
41928;DHT22;27616;51.420;6.788;2023-03-01T00:04:30;-0.70;99.90
41928;DHT22;27616;51.420;6.788;2023-03-01T00:06:56;-0.70;99.90
41928;DHT22;27616;51.420;6.788;2023-03-01T00:09:21;-0.70;99.90
41928;DHT22;27616;51.420;6.788;2023-03-01T00:11:47;-0.60;99.90
41928;DHT22;27616;51.420;6.788;2023-03-01T00:14:13;-0.70;99.90
41928;DHT22;27616;51.420;6.788;2023-03-01T00:16:41;-0.70;99.90
41928;DHT22;27616;51.420;6.788;2023-03-01T00:19:12;-0.70;99.90
41928;DHT22;27616;51.420;6.788;2023-03-01T00:21:38;-0.70;99.90
41928;DHT22;27616;51.420;6.788;2023-03-01T00:24:04;-0.70;99.90
41928;DHT22;27616;51.420;6.788;2023-03-01T00:26:30;-0.70;99.90
41928;DHT22;27616;51.420;6.788;2023-03-01T00:28:57;-0.80;99.90
41928;DHT22;27616;51.420;6.788;2023-03-01T00:31:26;-0.80;99.90
41928;DHT22;27616;51.420;6.788;2023-03-01T00:33:56;-0.80;99.90
41928;DHT22;27616;51.420;6.788;2023-03-01T00:36:24;-0.80;99.90
41928;DHT22;27616;51.420;6.788;2023-03-01T00:38:50;-0.80;99.90
41928;DHT22;27616;51.420;6.788;2023-03-01T00:41:18;-0.80;99.90
41928;DHT22;27616;51.420;6.788;2023-03-01T00:43:44;-0.80;99.90
41928;DHT22;27616;51.420;6.788;2023-03-01T00:46:16;-0.80;99.90
41928;DHT22;27616;51.420;6.788;2023-03-01T00:48:42;-0.80;99.90
41928;DHT22;27616;51.420;6.788;2023-03-01T00:51:28;-0.80;99.90
41928;DHT22;27616;51.420;6.788;2023-03-01T00:53:57;-0.80;99.90
41928;DHT22;27616;51.420;6.788;2023-03-01T00:56:24;-0.80;99.90
41928;DHT22;27616;51.420;6.788;2023-03-01T00:58:50;-0.90;99.90
41928;DHT22;27616;51.420;6.788;2023-03-01T01:01:19;-0.90;99.90
41928;DHT22;27616;51.420;6.788;2023-03-01T01:04:00;-0.90;99.90
41928;DHT22;27616;51.420;6.788;2023-03-01T01:06:27;-0.90;99.90
41928;DHT22;27616;51.420;6.788;2023-03-01T01:08:54;-1.00;99.90
41928;DHT22;27616;51.420;6.788;2023-03-01T01:11:22;-1.00;99.90
41928;DHT22;27616;51.420;6.788;2023-03-01T01:13:48;-1.00;99.90
41928;DHT22;27616;51.420;6.788;2023-03-01T01:16:14;-1.00;99.90
41928;DHT22;27616;51.420;6.788;2023-03-01T01:18:41;-1.00;99.90
41928;DHT22;27616;51.420;6.788;2023-03-01T01:21:10;-1.00;99.90
41928;DHT22;27616;51.420;6.788;2023-03-01T01:23:38;-1.10;99.90
41928;DHT22;27616;51.420;6.788;2023-03-01T01:26:10;-1.10;99.90
41928;DHT22;27616;51.420;6.788;2023-03-01T01:28:37;-1.10;99.90
41928;DHT22;27616;51.420;6.788;2023-03-01T01:31:04;-1.10;99.90
41928;DHT22;27616;51.420;6.788;2023-03-01T01:33:30;-1.20;99.90
41928;DHT22;27616;51.420;6.788;2023-03-01T01:35:55;-1.20;99.90
41928;DHT22;27616;51.420;6.788;2023-03-01T01:38:22;-1.20;99.90
41928;DHT22;27616;51.420;6.788;2023-03-01T01:40:49;-1.20;99.90
41928;DHT22;27616;51.420;6.788;2023-03-01T01:43:45;-1.20;99.90
41928;DHT22;27616;51.420;6.788;2023-03-01T01:51:53;-1.20;99.90
41928;DHT22;27616;51.420;6.788;2023-03-01T01:54:25;-1.30;99.90
41928;DHT22;27616;51.420;6.788;2023-03-01T01:56:57;-1.30;99.90
41928;DHT22;27616;51.420;6.788;2023-03-01T01:59:24;-1.30;99.90
41928;DHT22;27616;51.420;6.788;2023-03-01T02:01:52;-1.30;99.90
41928;DHT22;27616;51.420;6.788;2023-03-01T02:04:18;-1.40;99.90
41928;DHT22;27616;51.420;6.788;2023-03-01T02:06:53;-1.40;99.90
41928;DHT22;27616;51.420;6.788;2023-03-01T02:09:22;-1.40;99.90
41928;DHT22;27616;51.420;6.788;2023-03-01T02:11:49;-1.30;99.90
41928;DHT22;27616;51.420;6.788;2023-03-01T02:14:16;-1.40;99.90
41928;DHT22;27616;51.420;6.788;2023-03-01T02:16:42;-1.40;99.90
41928;DHT22;27616;51.420;6.788;2023-03-01T02:19:13;-1.40;99.90
41928;DHT22;27616;51.420;6.788;2023-03-01T02:22:34;-1.40;99.90
41928;DHT22;27616;51.420;6.788;2023-03-01T02:25:12;-1.40;99.90
41928;DHT22;27616;51.420;6.788;2023-03-01T02:30:42;-1.40;99.90
41928;DHT22;27616;51.420;6.788;2023-03-01T02:33:30;-1.50;99.90
41928;DHT22;27616;51.420;6.788;2023-03-01T02:36:04;-1.50;99.90
41928;DHT22;27616;51.420;6.788;2023-03-01T02:38:32;-1.50;99.90
41928;DHT22;27616;51.420;6.788;2023-03-01T02:40:58;-1.50;99.90
41928;DHT22;27616;51.420;6.788;2023-03-01T02:43:29;-1.50;99.90
41928;DHT22;27616;51.420;6.788;2023-03-01T02:45:58;-1.50;99.90
41928;DHT22;27616;51.420;6.788;2023-03-01T02:48:25;-1.50;99.90
41928;DHT22;27616;51.420;6.788;2023-03-01T02:51:05;-1.50;99.90
41928;DHT22;27616;51.420;6.788;2023-03-01T02:53:47;-1.50;99.90
41928;DHT22;27616;51.420;6.788;2023-03-01T02:56:14;-1.50;99.90
41928;DHT22;27616;51.420;6.788;2023-03-01T02:58:41;-1.50;99.90
41928;DHT22;27616;51.420;6.788;2023-03-01T03:01:13;-1.60;99.90
41928;DHT22;27616;51.420;6.788;2023-03-01T03:03:41;-1.60;99.90
41928;DHT22;27616;51.420;6.788;2023-03-01T03:06:07;-1.60;99.90
41928;DHT22;27616;51.420;6.788;2023-03-01T03:08:33;-1.70;99.90
41928;DHT22;27616;51.420;6.788;2023-03-01T03:10:59;-1.60;99.90
41928;DHT22;27616;51.420;6.788;2023-03-01T03:13:25;-1.70;99.90
41928;DHT22;27616;51.420;6.788;2023-03-01T03:15:55;-1.60;99.90
41928;DHT22;27616;51.420;6.788;2023-03-01T03:18:22;-1.70;99.90
41928;DHT22;27616;51.420;6.788;2023-03-01T03:20:52;-1.70;99.90
41928;DHT22;27616;51.420;6.788;2023-03-01T03:23:20;-1.70;99.90
41928;DHT22;27616;51.420;6.788;2023-03-01T03:25:49;-1.70;99.90
41928;DHT22;27616;51.420;6.788;2023-03-01T03:28:14;-1.70;99.90
41928;DHT22;27616;51.420;6.788;2023-03-01T03:30:42;-1.70;99.90
41928;DHT22;27616;51.420;6.788;2023-03-01T03:33:12;-1.70;99.90
41928;DHT22;27616;51.420;6.788;2023-03-01T03:35:41;-1.70;99.90
41928;DHT22;27616;51.420;6.788;2023-03-01T03:38:10;-1.70;99.90
41928;DHT22;27616;51.420;6.788;2023-03-01T03:43:15;-1.80;99.90
41928;DHT22;27616;51.420;6.788;2023-03-01T03:45:43;-1.80;99.90
41928;DHT22;27616;51.420;6.788;2023-03-01T03:48:09;-1.80;99.90
41928;DHT22;27616;51.420;6.788;2023-03-01T03:50:36;-1.80;99.90
41928;DHT22;27616;51.420;6.788;2023-03-01T03:53:04;-1.80;99.90
41928;DHT22;27616;51.420;6.788;2023-03-01T03:55:30;-1.90;99.90
41928;DHT22;27616;51.420;6.788;2023-03-01T03:58:00;-1.90;99.90
41928;DHT22;27616;51.420;6.788;2023-03-01T04:00:33;-1.90;99.90
41928;DHT22;27616;51.420;6.788;2023-03-01T04:02:59;-1.90;99.90
41928;DHT22;27616;51.420;6.788;2023-03-01T04:05:26;-1.90;99.90
41928;DHT22;27616;51.420;6.788;2023-03-01T04:07:52;-1.90;99.90
41928;DHT22;27616;51.420;6.788;2023-03-01T04:10:31;-1.90;99.90
41928;DHT22;27616;51.420;6.788;2023-03-01T04:12:57;-1.90;99.90
41928;DHT22;27616;51.420;6.788;2023-03-01T04:15:24;-2.00;99.90
41928;DHT22;27616;51.420;6.788;2023-03-01T04:17:52;-2.00;99.90
41928;DHT22;27616;51.420;6.788;2023-03-01T04:20:22;-2.00;99.90
41928;DHT22;27616;51.420;6.788;2023-03-01T04:22:55;-2.10;99.90
41928;DHT22;27616;51.420;6.788;2023-03-01T04:25:23;-2.00;99.90
41928;DHT22;27616;51.420;6.788;2023-03-01T04:27:51;-2.10;99.90
41928;DHT22;27616;51.420;6.788;2023-03-01T04:30:17;-2.10;99.90
41928;DHT22;27616;51.420;6.788;2023-03-01T04:32:43;-2.10;99.90
41928;DHT22;27616;51.420;6.788;2023-03-01T04:35:09;-2.10;99.90
41928;DHT22;27616;51.420;6.788;2023-03-01T04:37:35;-2.10;99.90
41928;DHT22;27616;51.420;6.788;2023-03-01T04:40:02;-2.10;99.90
41928;DHT22;27616;51.420;6.788;2023-03-01T04:42:38;-2.10;99.90
41928;DHT22;27616;51.420;6.788;2023-03-01T04:45:05;-2.10;99.90
41928;DHT22;27616;51.420;6.788;2023-03-01T04:47:39;-2.10;99.90
41928;DHT22;27616;51.420;6.788;2023-03-01T04:50:06;-2.10;99.90
41928;DHT22;27616;51.420;6.788;2023-03-01T04:52:32;-2.20;99.90
41928;DHT22;27616;51.420;6.788;2023-03-01T04:54:58;-2.20;99.90
41928;DHT22;27616;51.420;6.788;2023-03-01T04:57:24;-2.20;99.90
41928;DHT22;27616;51.420;6.788;2023-03-01T04:59:49;-2.10;99.90
41928;DHT22;27616;51.420;6.788;2023-03-01T05:02:15;-2.10;99.90
41928;DHT22;27616;51.420;6.788;2023-03-01T05:04:40;-2.10;99.90
41928;DHT22;27616;51.420;6.788;2023-03-01T05:07:06;-2.10;99.90
41928;DHT22;27616;51.420;6.788;2023-03-01T05:09:32;-2.10;99.90
41928;DHT22;27616;51.420;6.788;2023-03-01T05:11:58;-2.20;99.90
41928;DHT22;27616;51.420;6.788;2023-03-01T05:14:23;-2.20;99.90
41928;DHT22;27616;51.420;6.788;2023-03-01T05:16:49;-2.20;99.90
41928;DHT22;27616;51.420;6.788;2023-03-01T05:19:14;-2.20;99.90
41928;DHT22;27616;51.420;6.788;2023-03-01T05:21:41;-2.20;99.90
41928;DHT22;27616;51.420;6.788;2023-03-01T05:24:26;-2.20;99.90
41928;DHT22;27616;51.420;6.788;2023-03-01T05:26:52;-2.20;99.90
41928;DHT22;27616;51.420;6.788;2023-03-01T05:29:22;-2.20;99.90
41928;DHT22;27616;51.420;6.788;2023-03-01T05:31:58;-2.20;99.90
41928;DHT22;27616;51.420;6.788;2023-03-01T05:34:26;-2.20;99.90
41928;DHT22;27616;51.420;6.788;2023-03-01T05:36:53;-2.20;99.90
41928;DHT22;27616;51.420;6.788;2023-03-01T05:39:23;-2.20;99.90
41928;DHT22;27616;51.420;6.788;2023-03-01T05:41:54;-2.20;99.90
41928;DHT22;27616;51.420;6.788;2023-03-01T05:44:21;-2.30;99.90
41928;DHT22;27616;51.420;6.788;2023-03-01T05:46:47;-2.30;99.90
41928;DHT22;27616;51.420;6.788;2023-03-01T05:49:15;-2.30;99.90
41928;DHT22;27616;51.420;6.788;2023-03-01T05:51:41;-2.30;99.90
41928;DHT22;27616;51.420;6.788;2023-03-01T05:54:07;-2.30;99.90
41928;DHT22;27616;51.420;6.788;2023-03-01T05:56:34;-2.30;99.90
41928;DHT22;27616;51.420;6.788;2023-03-01T05:59:00;-2.30;99.90
41928;DHT22;27616;51.420;6.788;2023-03-01T06:01:26;-2.30;99.90
41928;DHT22;27616;51.420;6.788;2023-03-01T06:03:52;-2.30;99.90
41928;DHT22;27616;51.420;6.788;2023-03-01T06:06:18;-2.30;99.90
41928;DHT22;27616;51.420;6.788;2023-03-01T06:08:43;-2.30;99.90
41928;DHT22;27616;51.420;6.788;2023-03-01T06:11:09;-2.30;99.90
41928;DHT22;27616;51.420;6.788;2023-03-01T06:13:35;-2.30;99.90
41928;DHT22;27616;51.420;6.788;2023-03-01T06:16:00;-2.30;99.90
41928;DHT22;27616;51.420;6.788;2023-03-01T06:18:26;-2.30;99.90
41928;DHT22;27616;51.420;6.788;2023-03-01T06:20:53;-2.30;99.90
41928;DHT22;27616;51.420;6.788;2023-03-01T06:23:19;-2.30;99.90
41928;DHT22;27616;51.420;6.788;2023-03-01T06:25:45;-2.30;99.90
41928;DHT22;27616;51.420;6.788;2023-03-01T06:28:10;-2.30;99.90
41928;DHT22;27616;51.420;6.788;2023-03-01T06:30:36;-2.30;99.90
41928;DHT22;27616;51.420;6.788;2023-03-01T06:33:02;-2.30;99.90
41928;DHT22;27616;51.420;6.788;2023-03-01T06:35:31;-2.30;99.90
41928;DHT22;27616;51.420;6.788;2023-03-01T06:37:58;-2.30;99.90
41928;DHT22;27616;51.420;6.788;2023-03-01T06:40:25;-2.30;99.90
41928;DHT22;27616;51.420;6.788;2023-03-01T06:42:51;-2.20;99.90
41928;DHT22;27616;51.420;6.788;2023-03-01T06:45:18;-2.20;99.90
41928;DHT22;27616;51.420;6.788;2023-03-01T06:47:44;-2.20;99.90
41928;DHT22;27616;51.420;6.788;2023-03-01T06:50:10;-2.20;99.90
41928;DHT22;27616;51.420;6.788;2023-03-01T06:52:37;-2.10;99.90
41928;DHT22;27616;51.420;6.788;2023-03-01T06:55:02;-2.10;99.90
41928;DHT22;27616;51.420;6.788;2023-03-01T06:57:28;-2.10;99.90
41928;DHT22;27616;51.420;6.788;2023-03-01T06:59:54;-2.10;99.90
41928;DHT22;27616;51.420;6.788;2023-03-01T07:02:20;-2.00;99.90
41928;DHT22;27616;51.420;6.788;2023-03-01T07:04:46;-2.00;99.90
41928;DHT22;27616;51.420;6.788;2023-03-01T07:07:12;-1.90;99.90
41928;DHT22;27616;51.420;6.788;2023-03-01T07:09:37;-1.90;99.90
41928;DHT22;27616;51.420;6.788;2023-03-01T07:12:03;-1.90;99.90
41928;DHT22;27616;51.420;6.788;2023-03-01T07:14:29;-1.80;99.90
41928;DHT22;27616;51.420;6.788;2023-03-01T07:16:55;-1.70;99.90
41928;DHT22;27616;51.420;6.788;2023-03-01T07:19:21;-1.70;99.90
41928;DHT22;27616;51.420;6.788;2023-03-01T07:21:47;-1.70;99.90
41928;DHT22;27616;51.420;6.788;2023-03-01T07:24:13;-1.60;99.90
41928;DHT22;27616;51.420;6.788;2023-03-01T07:26:38;-1.60;99.90
41928;DHT22;27616;51.420;6.788;2023-03-01T07:29:06;-1.50;99.90
41928;DHT22;27616;51.420;6.788;2023-03-01T07:31:32;-1.40;99.90
41928;DHT22;27616;51.420;6.788;2023-03-01T07:33:58;-1.40;99.90
41928;DHT22;27616;51.420;6.788;2023-03-01T07:36:24;-1.30;99.90
41928;DHT22;27616;51.420;6.788;2023-03-01T07:38:51;-1.20;99.90
41928;DHT22;27616;51.420;6.788;2023-03-01T07:41:17;-0.90;99.90
41928;DHT22;27616;51.420;6.788;2023-03-01T07:43:42;-0.40;99.90
41928;DHT22;27616;51.420;6.788;2023-03-01T07:46:08;0.00;99.90
41928;DHT22;27616;51.420;6.788;2023-03-01T07:48:34;0.20;99.90
41928;DHT22;27616;51.420;6.788;2023-03-01T07:51:01;0.50;99.90
41928;DHT22;27616;51.420;6.788;2023-03-01T07:53:28;0.60;99.90
41928;DHT22;27616;51.420;6.788;2023-03-01T07:56:01;0.70;99.90
41928;DHT22;27616;51.420;6.788;2023-03-01T07:58:27;0.70;99.90
41928;DHT22;27616;51.420;6.788;2023-03-01T08:00:53;0.70;99.90
41928;DHT22;27616;51.420;6.788;2023-03-01T08:03:19;0.60;99.90
41928;DHT22;27616;51.420;6.788;2023-03-01T08:05:44;0.60;99.90
41928;DHT22;27616;51.420;6.788;2023-03-01T08:08:10;0.50;99.90
41928;DHT22;27616;51.420;6.788;2023-03-01T08:10:36;0.50;99.90
41928;DHT22;27616;51.420;6.788;2023-03-01T08:13:02;0.40;99.90
41928;DHT22;27616;51.420;6.788;2023-03-01T08:15:27;0.40;99.90
41928;DHT22;27616;51.420;6.788;2023-03-01T08:17:53;0.50;99.90
41928;DHT22;27616;51.420;6.788;2023-03-01T08:20:19;0.50;99.90
41928;DHT22;27616;51.420;6.788;2023-03-01T08:22:45;0.60;99.90
41928;DHT22;27616;51.420;6.788;2023-03-01T08:25:10;0.70;99.90
41928;DHT22;27616;51.420;6.788;2023-03-01T08:27:36;0.90;99.90
41928;DHT22;27616;51.420;6.788;2023-03-01T08:30:02;1.10;99.90
41928;DHT22;27616;51.420;6.788;2023-03-01T08:32:28;1.40;99.90
41928;DHT22;27616;51.420;6.788;2023-03-01T08:34:53;1.70;99.90
41928;DHT22;27616;51.420;6.788;2023-03-01T08:37:19;2.10;99.90
41928;DHT22;27616;51.420;6.788;2023-03-01T08:39:46;2.50;99.90
41928;DHT22;27616;51.420;6.788;2023-03-01T08:42:11;2.90;99.90
41928;DHT22;27616;51.420;6.788;2023-03-01T08:44:37;2.90;99.90
41928;DHT22;27616;51.420;6.788;2023-03-01T08:47:03;3.00;99.90
41928;DHT22;27616;51.420;6.788;2023-03-01T08:49:30;2.80;99.90
41928;DHT22;27616;51.420;6.788;2023-03-01T08:51:57;2.70;99.90
41928;DHT22;27616;51.420;6.788;2023-03-01T08:54:23;2.70;99.90
41928;DHT22;27616;51.420;6.788;2023-03-01T08:56:49;2.70;99.90
41928;DHT22;27616;51.420;6.788;2023-03-01T08:59:17;2.70;99.90
41928;DHT22;27616;51.420;6.788;2023-03-01T09:01:43;2.80;99.90
41928;DHT22;27616;51.420;6.788;2023-03-01T09:04:10;2.90;99.90
41928;DHT22;27616;51.420;6.788;2023-03-01T09:06:36;3.00;99.90
41928;DHT22;27616;51.420;6.788;2023-03-01T09:09:03;3.20;99.90
41928;DHT22;27616;51.420;6.788;2023-03-01T09:11:29;3.30;99.90
41928;DHT22;27616;51.420;6.788;2023-03-01T09:13:55;3.40;99.90
41928;DHT22;27616;51.420;6.788;2023-03-01T09:16:22;3.50;99.90
41928;DHT22;27616;51.420;6.788;2023-03-01T09:18:52;3.60;99.90
41928;DHT22;27616;51.420;6.788;2023-03-01T09:21:19;3.80;99.90
41928;DHT22;27616;51.420;6.788;2023-03-01T09:23:47;4.00;99.90
41928;DHT22;27616;51.420;6.788;2023-03-01T09:26:16;3.90;99.90
41928;DHT22;27616;51.420;6.788;2023-03-01T09:28:45;4.30;99.90
41928;DHT22;27616;51.420;6.788;2023-03-01T09:31:11;5.10;98.80
41928;DHT22;27616;51.420;6.788;2023-03-01T09:33:41;5.50;98.30
41928;DHT22;27616;51.420;6.788;2023-03-01T09:36:11;5.90;97.20
41928;DHT22;27616;51.420;6.788;2023-03-01T09:38:37;5.90;96.60
41928;DHT22;27616;51.420;6.788;2023-03-01T09:43:48;5.70;96.20
41928;DHT22;27616;51.420;6.788;2023-03-01T09:46:20;5.80;96.40
41928;DHT22;27616;51.420;6.788;2023-03-01T09:49:01;6.00;95.60
41928;DHT22;27616;51.420;6.788;2023-03-01T09:51:34;6.50;94.40
41928;DHT22;27616;51.420;6.788;2023-03-01T09:54:02;7.70;92.10
41928;DHT22;27616;51.420;6.788;2023-03-01T09:56:40;7.70;90.80
41928;DHT22;27616;51.420;6.788;2023-03-01T10:02:26;8.60;89.30
41928;DHT22;27616;51.420;6.788;2023-03-01T10:05:19;8.90;86.20
41928;DHT22;27616;51.420;6.788;2023-03-01T10:10:47;10.10;79.40
41928;DHT22;27616;51.420;6.788;2023-03-01T10:15:50;10.80;76.10
41928;DHT22;27616;51.420;6.788;2023-03-01T10:18:31;11.60;73.30
41928;DHT22;27616;51.420;6.788;2023-03-01T10:21:01;12.70;68.90
41928;DHT22;27616;51.420;6.788;2023-03-01T10:23:30;13.00;65.60
41928;DHT22;27616;51.420;6.788;2023-03-01T10:26:32;13.00;64.10
41928;DHT22;27616;51.420;6.788;2023-03-01T10:29:11;13.60;61.80
41928;DHT22;27616;51.420;6.788;2023-03-01T10:31:45;12.80;60.60
41928;DHT22;27616;51.420;6.788;2023-03-01T10:34:16;12.40;62.10
41928;DHT22;27616;51.420;6.788;2023-03-01T10:36:44;11.90;63.80
41928;DHT22;27616;51.420;6.788;2023-03-01T10:39:17;11.50;63.70
41928;DHT22;27616;51.420;6.788;2023-03-01T10:42:02;11.30;63.30
41928;DHT22;27616;51.420;6.788;2023-03-01T10:49:52;10.90;65.70
41928;DHT22;27616;51.420;6.788;2023-03-01T10:52:20;10.90;64.50
41928;DHT22;27616;51.420;6.788;2023-03-01T10:55:31;10.70;64.10
41928;DHT22;27616;51.420;6.788;2023-03-01T10:57:47;10.50;65.80
41928;DHT22;27616;51.420;6.788;2023-03-01T11:00:22;10.80;64.70
41928;DHT22;27616;51.420;6.788;2023-03-01T11:05:25;11.60;60.20
41928;DHT22;27616;51.420;6.788;2023-03-01T11:07:58;11.90;59.40
41928;DHT22;27616;51.420;6.788;2023-03-01T11:10:35;11.70;61.40
41928;DHT22;27616;51.420;6.788;2023-03-01T11:13:18;11.50;63.20
41928;DHT22;27616;51.420;6.788;2023-03-01T11:15:59;11.70;60.50
41928;DHT22;27616;51.420;6.788;2023-03-01T11:18:26;11.40;61.00
41928;DHT22;27616;51.420;6.788;2023-03-01T11:20:55;11.50;61.10
41928;DHT22;27616;51.420;6.788;2023-03-01T11:23:21;11.10;62.90
41928;DHT22;27616;51.420;6.788;2023-03-01T11:26:00;10.80;62.50
41928;DHT22;27616;51.420;6.788;2023-03-01T11:28:29;10.50;65.70
41928;DHT22;27616;51.420;6.788;2023-03-01T11:39:31;9.90;64.00
41928;DHT22;27616;51.420;6.788;2023-03-01T11:42:25;10.10;63.20
41928;DHT22;27616;51.420;6.788;2023-03-01T11:44:55;10.10;61.80
41928;DHT22;27616;51.420;6.788;2023-03-01T11:52:48;11.20;61.10
41928;DHT22;27616;51.420;6.788;2023-03-01T12:06:39;11.30;62.00
41928;DHT22;27616;51.420;6.788;2023-03-01T12:15:05;12.10;60.00
41928;DHT22;27616;51.420;6.788;2023-03-01T12:17:52;12.30;57.40
41928;DHT22;27616;51.420;6.788;2023-03-01T12:34:24;11.10;59.70
41928;DHT22;27616;51.420;6.788;2023-03-01T12:37:18;11.40;59.00
41928;DHT22;27616;51.420;6.788;2023-03-01T12:50:53;12.40;57.50
41928;DHT22;27616;51.420;6.788;2023-03-01T12:53:44;12.40;58.50
41928;DHT22;27616;51.420;6.788;2023-03-01T12:56:18;12.30;58.70
41928;DHT22;27616;51.420;6.788;2023-03-01T12:58:56;12.00;59.30
41928;DHT22;27616;51.420;6.788;2023-03-01T13:06:54;11.20;60.70
41928;DHT22;27616;51.420;6.788;2023-03-01T13:12:02;10.70;60.10
41928;DHT22;27616;51.420;6.788;2023-03-01T13:16:56;11.10;59.50
41928;DHT22;27616;51.420;6.788;2023-03-01T13:19:24;11.60;58.50
41928;DHT22;27616;51.420;6.788;2023-03-01T13:21:52;11.80;57.60
41928;DHT22;27616;51.420;6.788;2023-03-01T13:29:50;13.00;56.00
41928;DHT22;27616;51.420;6.788;2023-03-01T13:32:20;13.30;56.20
41928;DHT22;27616;51.420;6.788;2023-03-01T13:34:55;12.60;56.60
41928;DHT22;27616;51.420;6.788;2023-03-01T13:37:25;13.10;56.30
41928;DHT22;27616;51.420;6.788;2023-03-01T13:39:52;13.50;54.80
41928;DHT22;27616;51.420;6.788;2023-03-01T13:44:58;13.10;55.50
41928;DHT22;27616;51.420;6.788;2023-03-01T13:47:24;13.70;55.10
41928;DHT22;27616;51.420;6.788;2023-03-01T13:50:01;13.90;54.60
41928;DHT22;27616;51.420;6.788;2023-03-01T13:52:45;14.20;55.10
41928;DHT22;27616;51.420;6.788;2023-03-01T13:57:44;13.90;54.00
41928;DHT22;27616;51.420;6.788;2023-03-01T14:00:54;14.30;53.90
41928;DHT22;27616;51.420;6.788;2023-03-01T14:03:19;13.40;54.10
41928;DHT22;27616;51.420;6.788;2023-03-01T14:08:32;11.00;59.10
41928;DHT22;27616;51.420;6.788;2023-03-01T14:19:25;9.10;63.70
41928;DHT22;27616;51.420;6.788;2023-03-01T14:24:58;8.70;64.40
41928;DHT22;27616;51.420;6.788;2023-03-01T14:27:39;8.80;65.00
41928;DHT22;27616;51.420;6.788;2023-03-01T14:30:22;8.50;64.60
41928;DHT22;27616;51.420;6.788;2023-03-01T14:32:54;8.40;66.70
41928;DHT22;27616;51.420;6.788;2023-03-01T14:35:29;8.30;65.40
41928;DHT22;27616;51.420;6.788;2023-03-01T14:37:55;8.10;65.60
41928;DHT22;27616;51.420;6.788;2023-03-01T14:40:27;7.90;66.40
41928;DHT22;27616;51.420;6.788;2023-03-01T14:42:55;7.90;67.00
41928;DHT22;27616;51.420;6.788;2023-03-01T14:45:21;7.80;66.80
41928;DHT22;27616;51.420;6.788;2023-03-01T14:47:48;7.80;66.30
41928;DHT22;27616;51.420;6.788;2023-03-01T14:50:25;7.90;66.80
41928;DHT22;27616;51.420;6.788;2023-03-01T14:52:55;7.90;67.60
41928;DHT22;27616;51.420;6.788;2023-03-01T14:55:36;7.80;67.20
41928;DHT22;27616;51.420;6.788;2023-03-01T14:58:05;7.60;67.10
41928;DHT22;27616;51.420;6.788;2023-03-01T15:00:33;7.60;69.10
41928;DHT22;27616;51.420;6.788;2023-03-01T15:03:11;7.70;68.60
41928;DHT22;27616;51.420;6.788;2023-03-01T15:05:40;7.70;68.80
41928;DHT22;27616;51.420;6.788;2023-03-01T15:08:07;7.70;69.60
41928;DHT22;27616;51.420;6.788;2023-03-01T15:10:39;7.70;69.70
41928;DHT22;27616;51.420;6.788;2023-03-01T15:13:13;7.60;70.30
41928;DHT22;27616;51.420;6.788;2023-03-01T15:15:44;7.50;70.80
41928;DHT22;27616;51.420;6.788;2023-03-01T15:18:19;7.50;71.10
41928;DHT22;27616;51.420;6.788;2023-03-01T15:20:47;7.50;71.20
41928;DHT22;27616;51.420;6.788;2023-03-01T15:23:28;7.50;70.80
41928;DHT22;27616;51.420;6.788;2023-03-01T15:25:56;7.40;70.80
41928;DHT22;27616;51.420;6.788;2023-03-01T15:31:01;7.50;70.30
41928;DHT22;27616;51.420;6.788;2023-03-01T15:33:34;7.40;70.80
41928;DHT22;27616;51.420;6.788;2023-03-01T15:36:02;7.40;70.80
41928;DHT22;27616;51.420;6.788;2023-03-01T15:40:58;7.20;72.10
41928;DHT22;27616;51.420;6.788;2023-03-01T15:43:39;7.10;72.00
41928;DHT22;27616;51.420;6.788;2023-03-01T15:46:05;7.00;71.80
41928;DHT22;27616;51.420;6.788;2023-03-01T15:48:31;7.00;72.90
41928;DHT22;27616;51.420;6.788;2023-03-01T15:50:58;7.00;71.90
41928;DHT22;27616;51.420;6.788;2023-03-01T15:53:25;6.90;72.60
41928;DHT22;27616;51.420;6.788;2023-03-01T15:55:52;6.90;72.50
41928;DHT22;27616;51.420;6.788;2023-03-01T15:58:20;6.90;71.90
41928;DHT22;27616;51.420;6.788;2023-03-01T16:00:47;6.80;72.70
41928;DHT22;27616;51.420;6.788;2023-03-01T16:03:14;6.80;72.60
41928;DHT22;27616;51.420;6.788;2023-03-01T16:05:47;6.80;72.60
41928;DHT22;27616;51.420;6.788;2023-03-01T16:08:14;6.70;73.10
41928;DHT22;27616;51.420;6.788;2023-03-01T16:10:41;6.70;73.00
41928;DHT22;27616;51.420;6.788;2023-03-01T16:13:10;6.60;73.00
41928;DHT22;27616;51.420;6.788;2023-03-01T16:15:36;6.60;73.00
41928;DHT22;27616;51.420;6.788;2023-03-01T16:18:03;6.60;72.80
41928;DHT22;27616;51.420;6.788;2023-03-01T16:20:31;6.60;72.80
41928;DHT22;27616;51.420;6.788;2023-03-01T16:23:06;6.60;72.90
41928;DHT22;27616;51.420;6.788;2023-03-01T16:25:33;6.50;73.30
41928;DHT22;27616;51.420;6.788;2023-03-01T16:27:59;6.50;73.80
41928;DHT22;27616;51.420;6.788;2023-03-01T16:30:27;6.40;72.90
41928;DHT22;27616;51.420;6.788;2023-03-01T16:32:52;6.40;73.30
41928;DHT22;27616;51.420;6.788;2023-03-01T16:35:20;6.40;73.20
41928;DHT22;27616;51.420;6.788;2023-03-01T16:37:46;6.30;73.10
41928;DHT22;27616;51.420;6.788;2023-03-01T16:40:20;6.30;73.60
41928;DHT22;27616;51.420;6.788;2023-03-01T16:42:47;6.20;73.50
41928;DHT22;27616;51.420;6.788;2023-03-01T16:45:13;6.20;73.90
41928;DHT22;27616;51.420;6.788;2023-03-01T16:47:39;6.10;74.10
41928;DHT22;27616;51.420;6.788;2023-03-01T16:50:05;6.00;74.20
41928;DHT22;27616;51.420;6.788;2023-03-01T16:52:30;6.00;74.30
41928;DHT22;27616;51.420;6.788;2023-03-01T16:54:56;5.90;74.50
41928;DHT22;27616;51.420;6.788;2023-03-01T16:57:22;5.90;75.00
41928;DHT22;27616;51.420;6.788;2023-03-01T16:59:51;5.80;75.40
41928;DHT22;27616;51.420;6.788;2023-03-01T17:02:19;5.70;75.50
41928;DHT22;27616;51.420;6.788;2023-03-01T17:04:51;5.60;75.80
41928;DHT22;27616;51.420;6.788;2023-03-01T17:07:17;5.60;76.10
41928;DHT22;27616;51.420;6.788;2023-03-01T17:09:43;5.50;76.70
41928;DHT22;27616;51.420;6.788;2023-03-01T17:12:11;5.50;76.70
41928;DHT22;27616;51.420;6.788;2023-03-01T17:14:37;5.50;77.80
41928;DHT22;27616;51.420;6.788;2023-03-01T17:17:04;5.50;77.60
41928;DHT22;27616;51.420;6.788;2023-03-01T17:19:29;5.40;77.80
41928;DHT22;27616;51.420;6.788;2023-03-01T17:21:57;5.30;78.40
41928;DHT22;27616;51.420;6.788;2023-03-01T17:24:22;5.30;78.60
41928;DHT22;27616;51.420;6.788;2023-03-01T17:26:48;5.20;78.90
41928;DHT22;27616;51.420;6.788;2023-03-01T17:29:14;5.10;79.30
41928;DHT22;27616;51.420;6.788;2023-03-01T17:31:42;5.10;79.70
41928;DHT22;27616;51.420;6.788;2023-03-01T17:34:08;5.10;80.40
41928;DHT22;27616;51.420;6.788;2023-03-01T17:36:34;5.00;80.10
41928;DHT22;27616;51.420;6.788;2023-03-01T17:39:11;5.00;80.40
41928;DHT22;27616;51.420;6.788;2023-03-01T17:41:37;5.00;80.60
41928;DHT22;27616;51.420;6.788;2023-03-01T17:44:03;4.90;80.60
41928;DHT22;27616;51.420;6.788;2023-03-01T17:46:29;4.90;80.80
41928;DHT22;27616;51.420;6.788;2023-03-01T17:48:55;4.80;81.30
41928;DHT22;27616;51.420;6.788;2023-03-01T17:51:20;4.80;81.40
41928;DHT22;27616;51.420;6.788;2023-03-01T17:53:46;4.70;82.00
41928;DHT22;27616;51.420;6.788;2023-03-01T17:56:12;4.60;81.80
41928;DHT22;27616;51.420;6.788;2023-03-01T17:58:38;4.60;82.30